Time;durP1;ratioP1;P1;durP2;ratioP2;P2;SDS_P1;SDS_P2;PMS_P1;PMS_P2;Temp;Humidity;BMP_temperature;BMP_pressure;BME280_temperature;BME280_humidity;BME280_pressure;Samples;Min_cycle;Max_cycle;Signal;HPM_P1;HPM_P2
2022/09/09 00:01:09;;;;;;;5.58;3.08;;;;;;;;;;1762321;79;21302;-83
2022/09/09 00:03:40;;;;;;;7.42;3.62;;;;;;;;;;1747720;81;21246;-83
2022/09/09 00:06:12;;;;;;;4.00;2.77;;;;;;;;;;1742574;81;21207;-83
2022/09/09 00:08:45;;;;;;;4.78;2.45;;;;;;;;;;1794026;79;21244;-83
2022/09/09 00:11:33;;;;;;;5.55;3.30;;;;;;;;;;1814841;77;21168;-84
2022/09/09 00:14:05;;;;;;;7.30;4.87;;;;;;;;;;1839802;76;21131;-84
2022/09/09 00:16:36;;;;;;;4.22;2.65;;;;;;;;;;1833223;76;21668;-84
2022/09/09 00:19:07;;;;;;;9.45;6.17;;;;;;;;;;1846062;76;21244;-82
2022/09/09 00:21:39;;;;;;;8.33;5.53;;;;;;;;;;1882502;75;21146;-82
2022/09/09 00:24:11;;;;;;;4.85;3.12;;;;;;;;;;1845991;76;21663;-82
2022/09/09 00:26:40;;;;;;;13.03;8.03;;;;;;;;;;1890023;75;21173;-82
2022/09/09 00:29:12;;;;;;;7.78;4.55;;;;;;;;;;1892004;75;21068;-81
2022/09/09 00:31:43;;;;;;;8.50;6.25;;;;;;;;;;1885838;75;21547;-82
2022/09/09 00:34:16;;;;;;;21.35;15.60;;;;;;;;;;1880034;75;21134;-82
2022/09/09 00:36:46;;;;;;;14.03;9.30;;;;;;;;;;1900875;75;21158;-82
2022/09/09 00:39:17;;;;;;;16.55;10.88;;;;;;;;;;1880043;75;21162;-83
2022/09/09 00:41:49;;;;;;;19.52;13.38;;;;;;;;;;1881605;75;21840;-83
2022/09/09 00:44:19;;;;;;;35.15;23.75;;;;;;;;;;1877292;74;21201;-83
2022/09/09 00:46:50;;;;;;;26.10;18.23;;;;;;;;;;1898525;75;21060;-85
2022/09/09 00:49:22;;;;;;;17.70;11.83;;;;;;;;;;1892450;75;21439;-83
2022/09/09 00:51:52;;;;;;;11.70;8.20;;;;;;;;;;1890516;75;21080;-83
2022/09/09 00:54:23;;;;;;;9.63;5.83;;;;;;;;;;1889641;75;21128;-73
2022/09/09 00:56:55;;;;;;;8.15;4.40;;;;;;;;;;1874876;74;21193;-74
2022/09/09 00:59:27;;;;;;;5.75;3.87;;;;;;;;;;1848730;75;21162;-74
2022/09/09 01:01:58;;;;;;;8.05;4.05;;;;;;;;;;1849810;77;21171;-74
2022/09/09 01:04:30;;;;;;;5.67;3.33;;;;;;;;;;1859085;75;21251;-73
2022/09/09 01:07:02;;;;;;;7.60;5.28;;;;;;;;;;1848955;75;21080;-73
2022/09/09 01:09:33;;;;;;;7.05;3.52;;;;;;;;;;1860031;75;21152;-73
2022/09/09 01:12:04;;;;;;;6.92;3.42;;;;;;;;;;1865491;74;21084;-73
2022/09/09 01:14:36;;;;;;;4.85;3.83;;;;;;;;;;1921661;73;21123;-73
2022/09/09 01:17:09;;;;;;;5.95;3.20;;;;;;;;;;1929119;73;21162;-72
2022/09/09 01:19:40;;;;;;;6.20;4.15;;;;;;;;;;1894373;74;21121;-73
2022/09/09 01:22:11;;;;;;;5.58;3.98;;;;;;;;;;1898453;74;21092;-73
2022/09/09 01:24:42;;;;;;;5.72;4.28;;;;;;;;;;1895286;75;21428;-74
2022/09/09 01:27:13;;;;;;;9.83;4.33;;;;;;;;;;1921189;73;21092;-74
2022/09/09 01:29:44;;;;;;;8.28;5.12;;;;;;;;;;1929049;73;21118;-73
2022/09/09 01:32:15;;;;;;;7.65;5.08;;;;;;;;;;1898601;74;21170;-74
2022/09/09 01:34:46;;;;;;;5.30;4.00;;;;;;;;;;1861274;76;21587;-74
2022/09/09 01:37:16;;;;;;;7.37;4.70;;;;;;;;;;1888994;74;21590;-73
2022/09/09 01:39:46;;;;;;;7.47;4.95;;;;;;;;;;1921863;73;21220;-73
2022/09/09 01:42:17;;;;;;;7.83;4.15;;;;;;;;;;1915658;73;21185;-72
2022/09/09 01:44:47;;;;;;;5.95;4.22;;;;;;;;;;1926406;73;21131;-74
2022/09/09 01:47:17;;;;;;;7.78;5.05;;;;;;;;;;1920370;74;21071;-73
2022/09/09 01:49:47;;;;;;;6.30;4.33;;;;;;;;;;1923428;73;21715;-73
2022/09/09 01:52:18;;;;;;;8.63;4.12;;;;;;;;;;1926648;73;21075;-73
2022/09/09 01:54:48;;;;;;;5.60;3.92;;;;;;;;;;1930571;73;21111;-73
2022/09/09 01:57:19;;;;;;;4.80;3.92;;;;;;;;;;1926230;73;21603;-80
2022/09/09 01:59:56;;;;;;;6.55;4.45;;;;;;;;;;1898653;74;21176;-80
2022/09/09 02:02:29;;;;;;;6.03;3.65;;;;;;;;;;1899526;73;21090;-79
2022/09/09 02:05:02;;;;;;;4.20;2.92;;;;;;;;;;1933073;73;21206;-80
2022/09/09 02:07:33;;;;;;;4.95;2.83;;;;;;;;;;1895913;73;21108;-81
2022/09/09 02:10:05;;;;;;;7.92;3.17;;;;;;;;;;1903469;74;21098;-81
2022/09/09 02:12:36;;;;;;;4.72;3.12;;;;;;;;;;1899514;74;21196;-82
2022/09/09 02:15:08;;;;;;;6.50;3.17;;;;;;;;;;1903380;74;21173;-80
2022/09/09 02:17:39;;;;;;;3.95;3.55;;;;;;;;;;1887207;74;22049;-81
2022/09/09 02:20:11;;;;;;;7.33;3.47;;;;;;;;;;1882023;74;21741;-82
2022/09/09 02:22:42;;;;;;;3.90;3.27;;;;;;;;;;1930385;73;21139;-81
2022/09/09 02:25:14;;;;;;;3.47;3.00;;;;;;;;;;1884801;74;21120;-81
2022/09/09 02:27:45;;;;;;;3.62;3.00;;;;;;;;;;1885313;74;21186;-79
2022/09/09 02:30:16;;;;;;;7.85;3.22;;;;;;;;;;1926956;73;21170;-79
2022/09/09 02:32:47;;;;;;;3.87;2.98;;;;;;;;;;1935427;73;21082;-79
2022/09/09 02:35:18;;;;;;;3.80;2.70;;;;;;;;;;1916364;73;21167;-80
2022/09/09 02:37:51;;;;;;;4.25;2.92;;;;;;;;;;1938415;72;21083;-80
2022/09/09 02:40:24;;;;;;;5.50;3.40;;;;;;;;;;1934652;73;21126;-81
2022/09/09 02:42:55;;;;;;;5.95;3.27;;;;;;;;;;1927403;73;22146;-80
2022/09/09 02:45:27;;;;;;;5.22;3.42;;;;;;;;;;1891316;74;21211;-80
2022/09/09 02:47:58;;;;;;;4.37;3.30;;;;;;;;;;1928673;73;21064;-81
2022/09/09 02:50:30;;;;;;;5.25;3.90;;;;;;;;;;1932149;73;21176;-79
2022/09/09 02:53:01;;;;;;;4.78;3.40;;;;;;;;;;1918345;73;21508;-80
2022/09/09 02:55:32;;;;;;;6.78;3.95;;;;;;;;;;1933636;73;21135;-80
2022/09/09 02:58:05;;;;;;;5.90;3.47;;;;;;;;;;1936693;73;21677;-81
2022/09/09 03:00:37;;;;;;;4.95;3.75;;;;;;;;;;1932303;73;21146;-81
2022/09/09 03:03:11;;;;;;;4.72;3.60;;;;;;;;;;1931743;72;21122;-81
2022/09/09 03:05:40;;;;;;;7.65;4.10;;;;;;;;;;1932360;73;21140;-81
2022/09/09 03:08:12;;;;;;;4.70;3.37;;;;;;;;;;1924715;73;21107;-81
2022/09/09 03:10:48;;;;;;;4.40;3.20;;;;;;;;;;1931906;73;21191;-81
2022/09/09 03:13:19;;;;;;;3.80;3.10;;;;;;;;;;1921930;73;21503;-81
2022/09/09 03:15:49;;;;;;;4.05;2.70;;;;;;;;;;1890458;74;21076;-82
2022/09/09 03:18:19;;;;;;;7.87;3.27;;;;;;;;;;1889401;74;21147;-81
2022/09/09 03:20:50;;;;;;;4.37;2.87;;;;;;;;;;1854856;76;21150;-81
2022/09/09 03:23:21;;;;;;;3.98;3.10;;;;;;;;;;1865816;76;21150;-81
2022/09/09 03:25:52;;;;;;;4.05;3.35;;;;;;;;;;1861082;75;21146;-82
2022/09/09 03:28:23;;;;;;;5.10;2.80;;;;;;;;;;1856677;76;21214;-81
2022/09/09 03:30:54;;;;;;;4.50;2.87;;;;;;;;;;1855004;76;21230;-82
2022/09/09 03:33:24;;;;;;;4.35;2.52;;;;;;;;;;1860416;76;21080;-81
2022/09/09 03:35:56;;;;;;;3.87;2.42;;;;;;;;;;1860388;76;21088;-81
2022/09/09 03:38:31;;;;;;;4.40;2.47;;;;;;;;;;1851598;77;21131;-78
2022/09/09 03:40:59;;;;;;;4.00;2.72;;;;;;;;;;1853300;75;21622;-80
2022/09/09 03:43:29;;;;;;;3.75;2.80;;;;;;;;;;1862752;76;21112;-81
2022/09/09 03:46:00;;;;;;;3.80;2.75;;;;;;;;;;1846979;77;21061;-81
2022/09/09 03:48:30;;;;;;;5.15;2.90;;;;;;;;;;1852085;76;21107;-81
2022/09/09 03:51:03;;;;;;;7.15;3.50;;;;;;;;;;1852642;76;21174;-80
2022/09/09 03:53:34;;;;;;;4.70;3.00;;;;;;;;;;1854292;76;21147;-80
2022/09/09 03:56:06;;;;;;;7.78;3.72;;;;;;;;;;1862766;76;21491;-79
2022/09/09 03:58:37;;;;;;;5.17;2.98;;;;;;;;;;1853970;76;21088;-81
2022/09/09 04:01:14;;;;;;;4.25;2.45;;;;;;;;;;1853658;76;21232;-81
2022/09/09 04:03:43;;;;;;;3.92;2.12;;;;;;;;;;1857112;76;21147;-82
2022/09/09 04:06:17;;;;;;;3.87;1.60;;;;;;;;;;1849458;76;21194;-81
2022/09/09 04:08:49;;;;;;;2.42;1.20;;;;;;;;;;1853575;77;21266;-81
2022/09/09 04:11:21;;;;;;;2.37;1.05;;;;;;;;;;1879014;75;21140;-82
2022/09/09 04:13:51;;;;;;;2.00;1.17;;;;;;;;;;1879120;74;21053;-82
2022/09/09 04:16:21;;;;;;;1.75;0.80;;;;;;;;;;1907317;73;21126;-83
2022/09/09 04:18:53;;;;;;;2.02;0.90;;;;;;;;;;1846248;76;21571;-82
2022/09/09 04:21:23;;;;;;;2.33;0.88;;;;;;;;;;1852632;76;21174;-82
2022/09/09 04:23:59;;;;;;;2.17;1.10;;;;;;;;;;1847928;76;21707;-82
2022/09/09 04:26:27;;;;;;;2.55;1.45;;;;;;;;;;1875802;75;21206;-80
2022/09/09 04:29:00;;;;;;;2.80;1.20;;;;;;;;;;1914892;74;21075;-81
2022/09/09 04:31:31;;;;;;;3.77;1.27;;;;;;;;;;1926440;73;21405;-81
2022/09/09 04:34:05;;;;;;;3.10;1.40;;;;;;;;;;1931383;73;21204;-81
2022/09/09 04:36:36;;;;;;;3.90;1.40;;;;;;;;;;1935234;73;21590;-81
2022/09/09 04:39:06;;;;;;;2.85;1.47;;;;;;;;;;1942591;73;21141;-81
2022/09/09 04:41:37;;;;;;;2.55;1.40;;;;;;;;;;1931141;73;21125;-81
2022/09/09 04:44:15;;;;;;;3.37;1.70;;;;;;;;;;1925972;73;21424;-82
2022/09/09 04:46:45;;;;;;;2.72;1.67;;;;;;;;;;1930836;73;21083;-80
2022/09/09 04:49:15;;;;;;;2.27;1.32;;;;;;;;;;1934167;73;21256;-80
2022/09/09 04:51:52;;;;;;;2.08;1.20;;;;;;;;;;1928304;73;21107;-81
2022/09/09 04:54:23;;;;;;;2.27;1.47;;;;;;;;;;1920059;74;21040;-82
2022/09/09 04:56:54;;;;;;;2.70;1.45;;;;;;;;;;1927318;73;21155;-81
2022/09/09 04:59:28;;;;;;;3.87;1.40;;;;;;;;;;1927187;73;22142;-81
2022/09/09 05:02:00;;;;;;;1.90;1.32;;;;;;;;;;1930579;73;21248;-81
2022/09/09 05:04:30;;;;;;;2.77;1.60;;;;;;;;;;1879990;75;21131;-80
2022/09/09 05:07:03;;;;;;;4.97;2.08;;;;;;;;;;1917833;73;21119;-80
2022/09/09 05:09:33;;;;;;;3.55;1.62;;;;;;;;;;1857348;75;21049;-81
2022/09/09 05:12:04;;;;;;;3.95;1.90;;;;;;;;;;1938210;72;21150;-79
2022/09/09 05:14:37;;;;;;;3.02;1.90;;;;;;;;;;1935047;73;21200;-80
2022/09/09 05:17:07;;;;;;;4.17;1.70;;;;;;;;;;1909022;74;21233;-80
2022/09/09 05:19:38;;;;;;;3.22;1.92;;;;;;;;;;1884988;75;21850;-78
2022/09/09 05:22:14;;;;;;;4.15;1.92;;;;;;;;;;1893052;75;21135;-80
2022/09/09 05:24:44;;;;;;;4.55;2.10;;;;;;;;;;1897219;73;21177;-81
2022/09/09 05:27:16;;;;;;;3.50;1.90;;;;;;;;;;1945512;73;21114;-80
2022/09/09 05:29:47;;;;;;;4.10;1.98;;;;;;;;;;1930775;73;21120;-82
2022/09/09 05:32:18;;;;;;;3.22;2.00;;;;;;;;;;1883829;75;21158;-81
2022/09/09 05:34:48;;;;;;;5.25;1.80;;;;;;;;;;1925020;72;21113;-81
2022/09/09 05:37:23;;;;;;;5.20;1.80;;;;;;;;;;1880788;75;21193;-79
2022/09/09 05:39:54;;;;;;;4.65;1.82;;;;;;;;;;1848266;76;21120;-81
2022/09/09 05:42:30;;;;;;;3.05;1.77;;;;;;;;;;1934781;73;21051;-81
2022/09/09 05:45:00;;;;;;;8.20;2.33;;;;;;;;;;1943609;72;21098;-80
2022/09/09 05:47:31;;;;;;;7.53;2.62;;;;;;;;;;1922356;73;21084;-80
2022/09/09 05:50:01;;;;;;;4.10;2.20;;;;;;;;;;1929365;73;21648;-82
2022/09/09 05:52:34;;;;;;;2.77;1.60;;;;;;;;;;1914113;73;21161;-82
2022/09/09 05:55:04;;;;;;;5.58;2.20;;;;;;;;;;1941622;73;21170;-81
2022/09/09 05:57:36;;;;;;;2.87;1.72;;;;;;;;;;1939198;73;21123;-81
2022/09/09 06:00:09;;;;;;;4.35;2.08;;;;;;;;;;1928464;73;21220;-80
2022/09/09 06:02:42;;;;;;;3.80;1.98;;;;;;;;;;1941960;73;21247;-81
2022/09/09 06:05:15;;;;;;;3.98;1.85;;;;;;;;;;1915078;73;21160;-82
2022/09/09 06:07:45;;;;;;;4.62;2.05;;;;;;;;;;1937946;73;21723;-82
2022/09/09 06:10:15;;;;;;;3.95;2.30;;;;;;;;;;1878554;75;21458;-81
2022/09/09 06:12:48;;;;;;;2.87;1.35;;;;;;;;;;1841061;77;21200;-81
2022/09/09 06:15:19;;;;;;;3.83;1.87;;;;;;;;;;1842713;76;21063;-82
2022/09/09 06:17:51;;;;;;;2.50;1.80;;;;;;;;;;1848119;76;21229;-80
2022/09/09 06:20:24;;;;;;;4.20;2.00;;;;;;;;;;1881912;75;21139;-81
2022/09/09 06:23:00;;;;;;;2.95;1.50;;;;;;;;;;1957041;73;21055;-81
2022/09/09 06:25:34;;;;;;;3.00;2.10;;;;;;;;;;1909463;74;21073;-81
2022/09/09 06:28:11;;;;;;;2.33;1.65;;;;;;;;;;1908479;75;21138;-82
2022/09/09 06:30:38;;;;;;;2.05;1.05;;;;;;;;;;1931536;73;21154;-82
2022/09/09 06:33:09;;;;;;;4.70;1.82;;;;;;;;;;1945350;73;21143;-80
2022/09/09 06:35:40;;;;;;;1.85;1.10;;;;;;;;;;1941174;73;21210;-75
2022/09/09 06:38:11;;;;;;;2.42;0.85;;;;;;;;;;1936034;72;21186;-73
2022/09/09 06:40:42;;;;;;;3.40;1.37;;;;;;;;;;1947600;73;21150;-76
2022/09/09 06:43:13;;;;;;;5.45;1.90;;;;;;;;;;1950570;73;21138;-75
2022/09/09 06:45:44;;;;;;;1.98;1.10;;;;;;;;;;1919348;74;21252;-76
2022/09/09 06:48:14;;;;;;;1.40;0.82;;;;;;;;;;1958214;73;21934;-75
2022/09/09 06:50:45;;;;;;;1.57;0.90;;;;;;;;;;1901380;74;22364;-76
2022/09/09 06:53:18;;;;;;;3.37;1.20;;;;;;;;;;1931831;73;21646;-75
2022/09/09 06:55:48;;;;;;;2.83;1.12;;;;;;;;;;1928310;73;21178;-74
2022/09/09 06:58:18;;;;;;;1.57;0.80;;;;;;;;;;1908549;73;21715;-76
2022/09/09 07:00:50;;;;;;;2.35;1.40;;;;;;;;;;1909974;73;21157;-76
2022/09/09 07:03:35;;;;;;;2.83;0.95;;;;;;;;;;1910638;73;21107;-76
2022/09/09 07:06:06;;;;;;;3.65;0.95;;;;;;;;;;1921038;73;21257;-77
2022/09/09 07:08:36;;;;;;;1.92;1.20;;;;;;;;;;1916878;73;21091;-75
2022/09/09 07:11:06;;;;;;;2.62;1.10;;;;;;;;;;1922854;73;21036;-75
2022/09/09 07:13:38;;;;;;;2.37;0.70;;;;;;;;;;1901271;74;21546;-75
2022/09/09 07:16:10;;;;;;;1.98;0.93;;;;;;;;;;1909310;75;21588;-75
2022/09/09 07:18:41;;;;;;;2.12;0.98;;;;;;;;;;1898813;75;21214;-75
2022/09/09 07:21:12;;;;;;;1.98;0.85;;;;;;;;;;1907971;75;21515;-75
2022/09/09 07:23:43;;;;;;;2.60;1.00;;;;;;;;;;1907005;75;21684;-76
2022/09/09 07:26:14;;;;;;;4.05;1.00;;;;;;;;;;1857491;76;21163;-76
2022/09/09 07:28:45;;;;;;;3.45;1.00;;;;;;;;;;1917173;73;21217;-76
2022/09/09 07:31:16;;;;;;;2.15;1.07;;;;;;;;;;1919507;73;21148;-75
2022/09/09 07:33:48;;;;;;;2.52;1.00;;;;;;;;;;1924055;73;21070;-75
2022/09/09 07:36:23;;;;;;;1.85;1.02;;;;;;;;;;1917972;74;21098;-74
2022/09/09 07:38:52;;;;;;;2.40;1.10;;;;;;;;;;1854401;76;21134;-75
2022/09/09 07:41:24;;;;;;;2.75;1.50;;;;;;;;;;1868355;75;21260;-75
2022/09/09 07:43:54;;;;;;;2.27;1.20;;;;;;;;;;1863357;76;21190;-75
2022/09/09 07:46:26;;;;;;;2.00;1.07;;;;;;;;;;1921419;73;21682;-74
2022/09/09 07:48:58;;;;;;;2.47;1.00;;;;;;;;;;1901947;74;21493;-75
2022/09/09 07:51:30;;;;;;;2.52;1.20;;;;;;;;;;1920877;73;21080;-75
2022/09/09 07:54:03;;;;;;;2.17;1.10;;;;;;;;;;1920414;73;21135;-76
2022/09/09 07:56:33;;;;;;;1.60;0.90;;;;;;;;;;1889566;76;21151;-76
2022/09/09 07:59:06;;;;;;;1.80;0.80;;;;;;;;;;1909135;75;22087;-76
2022/09/09 08:01:38;;;;;;;1.90;0.90;;;;;;;;;;1916016;73;21150;-75
2022/09/09 08:04:12;;;;;;;1.92;0.98;;;;;;;;;;1910283;74;21233;-75
2022/09/09 08:06:43;;;;;;;2.50;0.65;;;;;;;;;;1905284;73;21674;-75
2022/09/09 08:09:13;;;;;;;2.27;0.53;;;;;;;;;;1912743;73;21147;-75
2022/09/09 08:11:44;;;;;;;1.15;0.62;;;;;;;;;;1912768;73;21233;-74
2022/09/09 08:14:14;;;;;;;1.22;0.50;;;;;;;;;;1915548;73;21148;-75
2022/09/09 08:16:46;;;;;;;1.85;0.60;;;;;;;;;;1912084;73;21128;-76
2022/09/09 08:19:17;;;;;;;1.12;0.53;;;;;;;;;;1934074;73;21147;-75
2022/09/09 08:21:48;;;;;;;1.15;0.60;;;;;;;;;;1935421;73;21127;-75
2022/09/09 08:24:19;;;;;;;1.82;0.80;;;;;;;;;;1904905;75;21147;-75
2022/09/09 08:26:50;;;;;;;1.95;0.62;;;;;;;;;;1869379;76;21080;-76
2022/09/09 08:29:20;;;;;;;2.22;0.95;;;;;;;;;;1894098;74;21152;-75
2022/09/09 08:31:54;;;;;;;2.77;0.80;;;;;;;;;;1913597;74;21575;-76
2022/09/09 08:34:26;;;;;;;3.40;0.98;;;;;;;;;;1899598;74;21100;-77
2022/09/09 08:36:55;;;;;;;4.40;0.85;;;;;;;;;;1895431;73;21235;-75
2022/09/09 08:39:26;;;;;;;2.77;1.10;;;;;;;;;;1899421;74;21293;-77
2022/09/09 08:42:00;;;;;;;1.75;1.00;;;;;;;;;;1899749;75;21131;-75
2022/09/09 08:44:30;;;;;;;1.60;0.62;;;;;;;;;;1903515;75;21115;-76
2022/09/09 08:47:02;;;;;;;1.92;0.88;;;;;;;;;;1905503;73;21148;-76
2022/09/09 08:49:33;;;;;;;1.75;0.80;;;;;;;;;;1886983;75;22361;-76
2022/09/09 08:52:06;;;;;;;1.95;0.90;;;;;;;;;;1896830;74;21214;-76
2022/09/09 08:54:36;;;;;;;1.30;0.70;;;;;;;;;;1883486;74;21669;-75
2022/09/09 08:57:10;;;;;;;3.77;1.30;;;;;;;;;;1923356;73;21861;-76
2022/09/09 08:59:40;;;;;;;2.75;1.07;;;;;;;;;;1919063;73;21194;-74
2022/09/09 09:02:14;;;;;;;2.85;0.90;;;;;;;;;;1934116;73;21752;-75
2022/09/09 09:04:44;;;;;;;2.83;1.30;;;;;;;;;;1924161;73;21155;-75
2022/09/09 09:07:16;;;;;;;2.20;1.15;;;;;;;;;;1929475;73;21212;-75
2022/09/09 09:09:47;;;;;;;2.08;1.37;;;;;;;;;;1923286;73;21139;-75
2022/09/09 09:12:18;;;;;;;4.97;1.25;;;;;;;;;;1922299;73;21210;-74
2022/09/09 09:14:49;;;;;;;4.17;1.10;;;;;;;;;;1923346;73;21143;-77
2022/09/09 09:17:21;;;;;;;6.72;1.45;;;;;;;;;;1907959;73;21146;-77
2022/09/09 09:19:51;;;;;;;3.62;1.47;;;;;;;;;;1907312;74;21092;-76
2022/09/09 09:22:25;;;;;;;2.25;1.50;;;;;;;;;;1908760;74;21120;-75
2022/09/09 09:24:55;;;;;;;2.60;1.32;;;;;;;;;;1911334;74;21112;-76
2022/09/09 09:27:28;;;;;;;2.60;1.50;;;;;;;;;;1865811;75;21160;-76
2022/09/09 09:29:59;;;;;;;3.60;1.60;;;;;;;;;;1901381;74;21104;-75
2022/09/09 09:32:32;;;;;;;2.90;1.20;;;;;;;;;;1911460;74;21127;-76
2022/09/09 09:35:04;;;;;;;1.98;1.20;;;;;;;;;;1909251;74;21116;-76
2022/09/09 09:37:35;;;;;;;2.90;1.35;;;;;;;;;;1907444;73;21128;-74
2022/09/09 09:40:09;;;;;;;2.55;1.30;;;;;;;;;;1912937;74;21116;-76
2022/09/09 09:42:41;;;;;;;3.10;1.60;;;;;;;;;;1908188;74;21135;-77
2022/09/09 09:45:12;;;;;;;2.67;1.42;;;;;;;;;;1913776;73;21181;-75
2022/09/09 09:47:44;;;;;;;3.22;1.40;;;;;;;;;;1899040;74;21122;-75
2022/09/09 09:50:15;;;;;;;3.65;1.50;;;;;;;;;;1910132;74;21131;-76
2022/09/09 09:52:47;;;;;;;2.70;1.37;;;;;;;;;;1905805;74;21071;-74
2022/09/09 09:55:17;;;;;;;4.65;1.80;;;;;;;;;;1911165;74;21170;-75
2022/09/09 09:57:48;;;;;;;2.98;1.55;;;;;;;;;;1911181;74;21096;-76
2022/09/09 10:00:20;;;;;;;6.33;1.40;;;;;;;;;;1833295;76;21643;-73
2022/09/09 10:02:52;;;;;;;3.35;1.40;;;;;;;;;;1911505;74;21170;-74
2022/09/09 10:05:24;;;;;;;4.03;1.30;;;;;;;;;;1910557;74;21104;-74
2022/09/09 10:07:57;;;;;;;2.42;1.40;;;;;;;;;;1907327;74;21679;-74
2022/09/09 10:10:29;;;;;;;2.92;1.90;;;;;;;;;;1914075;74;21571;-75
2022/09/09 10:13:00;;;;;;;3.45;1.70;;;;;;;;;;1902734;73;21171;-76
2022/09/09 10:15:34;;;;;;;3.90;1.50;;;;;;;;;;1903475;74;21182;-75
2022/09/09 10:18:04;;;;;;;2.45;1.52;;;;;;;;;;1908504;73;21123;-88
2022/09/09 10:20:36;;;;;;;4.12;1.62;;;;;;;;;;1899476;75;21211;-87
2022/09/09 10:23:07;;;;;;;5.70;3.40;;;;;;;;;;1889550;75;21214;-87
2022/09/09 10:25:37;;;;;;;3.45;1.80;;;;;;;;;;1894943;75;21237;-86
2022/09/09 10:28:10;;;;;;;2.83;1.30;;;;;;;;;;1873898;74;21091;-87
2022/09/09 10:30:42;;;;;;;1.70;1.37;;;;;;;;;;1873828;76;21119;-87
2022/09/09 10:33:13;;;;;;;3.52;1.65;;;;;;;;;;1842221;76;21225;-87
2022/09/09 10:35:45;;;;;;;3.05;1.98;;;;;;;;;;1808040;78;21169;-86
2022/09/09 10:38:15;;;;;;;2.95;1.72;;;;;;;;;;1804070;78;21107;-85
2022/09/09 10:40:51;;;;;;;3.02;1.90;;;;;;;;;;1787677;79;21210;-86
2022/09/09 10:43:22;;;;;;;4.97;2.08;;;;;;;;;;1810431;77;21093;-88
2022/09/09 10:45:53;;;;;;;4.10;2.00;;;;;;;;;;1872735;74;21150;-86
2022/09/09 10:48:27;;;;;;;4.95;1.77;;;;;;;;;;1868527;75;21197;-86
2022/09/09 10:51:00;;;;;;;4.08;2.00;;;;;;;;;;1867344;76;21187;-85
2022/09/09 10:53:33;;;;;;;3.92;2.10;;;;;;;;;;1869293;75;21171;-85
2022/09/09 10:56:10;;;;;;;4.05;2.12;;;;;;;;;;1874716;76;21528;-88
2022/09/09 10:58:41;;;;;;;3.67;2.10;;;;;;;;;;1873891;75;21353;-87
2022/09/09 11:01:13;;;;;;;3.67;1.70;;;;;;;;;;1873783;76;21147;-87
2022/09/09 11:03:44;;;;;;;5.60;2.08;;;;;;;;;;1855773;75;21270;-86
2022/09/09 11:06:29;;;;;;;;;;;;;;;;;;;;;
2022/09/09 11:12:08;;;;;;;3.17;1.87;;;;;;;;;;1888458;74;21111;-88
2022/09/09 11:14:40;;;;;;;5.20;1.90;;;;;;;;;;1885672;75;21178;-87
2022/09/09 11:17:10;;;;;;;3.58;1.85;;;;;;;;;;1859134;76;21207;-86
2022/09/09 11:19:47;;;;;;;4.67;1.95;;;;;;;;;;1938540;72;21629;-86
2022/09/09 11:22:15;;;;;;;7.05;2.45;;;;;;;;;;1922011;73;21136;-86
2022/09/09 11:24:48;;;;;;;3.62;2.10;;;;;;;;;;1952373;73;21208;-88
2022/09/09 11:27:19;;;;;;;5.00;2.55;;;;;;;;;;1908933;75;21185;-88
2022/09/09 11:29:52;;;;;;;4.42;2.30;;;;;;;;;;1911033;75;21069;-86
2022/09/09 11:32:25;;;;;;;5.17;2.42;;;;;;;;;;1845491;77;21221;-87
2022/09/09 11:34:57;;;;;;;4.65;2.40;;;;;;;;;;1848592;76;21103;-87
2022/09/09 11:37:30;;;;;;;6.75;2.98;;;;;;;;;;1866842;76;21128;-88
2022/09/09 11:40:01;;;;;;;4.50;2.30;;;;;;;;;;1951519;73;22220;-87
2022/09/09 11:42:33;;;;;;;4.42;2.33;;;;;;;;;;1949804;73;21653;-88
2022/09/09 11:45:08;;;;;;;4.10;2.50;;;;;;;;;;1924149;73;21095;-86
2022/09/09 11:47:39;;;;;;;7.37;2.70;;;;;;;;;;1929970;73;21087;-86
2022/09/09 11:50:09;;;;;;;5.10;2.40;;;;;;;;;;1908906;75;21106;-85
2022/09/09 11:52:42;;;;;;;7.97;3.27;;;;;;;;;;1911177;74;21107;-87
2022/09/09 11:55:14;;;;;;;7.25;3.90;;;;;;;;;;1890112;75;21202;-88
2022/09/09 11:57:49;;;;;;;8.80;3.72;;;;;;;;;;1949501;73;21091;-87
2022/09/09 12:00:18;;;;;;;8.00;2.83;;;;;;;;;;1909880;75;21585;-86
2022/09/09 12:02:50;;;;;;;4.33;2.02;;;;;;;;;;1909333;74;21181;-88
2022/09/09 12:05:21;;;;;;;7.97;2.67;;;;;;;;;;1905335;75;21163;-86
2022/09/09 12:07:56;;;;;;;9.95;2.47;;;;;;;;;;1895850;75;21124;-85
2022/09/09 12:10:24;;;;;;;7.92;2.67;;;;;;;;;;1899471;74;21657;-87
2022/09/09 12:12:55;;;;;;;5.03;2.52;;;;;;;;;;1879158;75;21175;-87
2022/09/09 12:15:29;;;;;;;6.62;3.58;;;;;;;;;;1844195;76;21212;-87
2022/09/09 12:18:02;;;;;;;9.30;3.58;;;;;;;;;;1928388;73;21037;-87
2022/09/09 12:20:34;;;;;;;8.15;3.62;;;;;;;;;;1917677;73;21134;-87
2022/09/09 12:23:08;;;;;;;8.13;3.27;;;;;;;;;;1876227;75;21175;-87
2022/09/09 12:25:39;;;;;;;7.72;4.03;;;;;;;;;;1874188;75;21243;-89
2022/09/09 12:28:11;;;;;;;22.90;16.42;;;;;;;;;;1880239;75;21931;-88
2022/09/09 12:30:44;;;;;;;11.88;5.17;;;;;;;;;;1860467;75;21159;-88
2022/09/09 12:33:15;;;;;;;7.80;4.20;;;;;;;;;;1882709;75;21199;-87
2022/09/09 12:35:47;;;;;;;7.17;3.12;;;;;;;;;;1894679;75;21108;-87
2022/09/09 12:38:19;;;;;;;7.03;3.12;;;;;;;;;;1860924;76;21091;-86
2022/09/09 12:40:51;;;;;;;5.92;2.70;;;;;;;;;;1889106;75;21095;-86
2022/09/09 12:43:22;;;;;;;5.12;3.12;;;;;;;;;;1893389;75;21102;-87
2022/09/09 12:45:57;;;;;;;7.78;3.90;;;;;;;;;;1903761;74;22320;-87
2022/09/09 12:48:28;;;;;;;7.72;3.40;;;;;;;;;;1856068;76;21106;-86
2022/09/09 12:50:59;;;;;;;8.78;2.65;;;;;;;;;;1825687;77;21114;-88
2022/09/09 12:53:32;;;;;;;7.95;3.22;;;;;;;;;;1853363;75;21161;-86
2022/09/09 12:56:09;;;;;;;7.70;2.95;;;;;;;;;;1821525;78;21206;-86
2022/09/09 12:58:48;;;;;;;7.83;3.70;;;;;;;;;;1854329;76;21139;-86
2022/09/09 13:01:18;;;;;;;8.63;3.98;;;;;;;;;;1836816;77;21155;-87
2022/09/09 13:04:06;;;;;;;10.18;3.70;;;;;;;;;;1832154;77;21207;-87
2022/09/09 13:06:44;;;;;;;7.83;3.85;;;;;;;;;;1799392;78;21211;-87
2022/09/09 13:09:20;;;;;;;6.87;3.20;;;;;;;;;;1902524;74;21188;-87
2022/09/09 13:12:05;;;;;;;6.70;3.25;;;;;;;;;;1888376;75;21147;-87
2022/09/09 13:14:40;;;;;;;6.95;3.10;;;;;;;;;;1898168;74;21151;-86
2022/09/09 13:17:21;;;;;;;5.90;3.87;;;;;;;;;;1901467;74;21102;-87
2022/09/09 13:19:59;;;;;;;6.58;3.40;;;;;;;;;;1897953;74;21131;-88
2022/09/09 13:22:32;;;;;;;5.12;3.60;;;;;;;;;;1833103;76;21174;-88
2022/09/09 13:25:13;;;;;;;6.50;4.00;;;;;;;;;;1852708;75;21119;-87
2022/09/09 13:27:44;;;;;;;7.75;3.52;;;;;;;;;;1859728;75;21161;-87
2022/09/09 13:30:24;;;;;;;8.65;4.50;;;;;;;;;;1876956;75;21200;-86
2022/09/09 13:32:58;;;;;;;6.83;4.45;;;;;;;;;;1896602;74;21032;-86
2022/09/09 13:35:29;;;;;;;8.53;5.08;;;;;;;;;;1888732;74;21152;-86
2022/09/09 13:38:01;;;;;;;8.45;4.97;;;;;;;;;;1892256;74;21131;-86
2022/09/09 13:40:34;;;;;;;7.85;5.85;;;;;;;;;;1894058;74;21139;-87
2022/09/09 13:43:05;;;;;;;8.70;5.58;;;;;;;;;;1883856;74;21135;-89
2022/09/09 13:45:36;;;;;;;9.08;5.60;;;;;;;;;;1890782;74;21131;-88
2022/09/09 13:48:10;;;;;;;10.05;6.17;;;;;;;;;;1895891;74;21213;-87
2022/09/09 13:50:41;;;;;;;8.33;5.28;;;;;;;;;;1905438;74;21132;-87
2022/09/09 13:53:16;;;;;;;11.12;5.58;;;;;;;;;;1912104;74;21108;-87
2022/09/09 13:55:43;;;;;;;9.23;5.33;;;;;;;;;;1889953;74;21119;-88
2022/09/09 13:58:19;;;;;;;12.18;4.80;;;;;;;;;;1899078;74;21203;-87
2022/09/09 14:00:50;;;;;;;7.95;5.05;;;;;;;;;;1894521;75;21576;-87
2022/09/09 14:03:25;;;;;;;6.70;4.83;;;;;;;;;;1898807;74;21160;-86
2022/09/09 14:05:55;;;;;;;13.20;5.80;;;;;;;;;;1907721;74;21717;-89
2022/09/09 14:08:36;;;;;;;8.50;6.00;;;;;;;;;;1882211;74;21226;-88
2022/09/09 14:11:01;;;;;;;9.68;5.70;;;;;;;;;;1894475;74;21162;-86
2022/09/09 14:13:33;;;;;;;8.05;5.12;;;;;;;;;;1900038;74;21120;-88
2022/09/09 14:16:11;;;;;;;10.32;4.67;;;;;;;;;;1905133;74;21697;-89
2022/09/09 14:18:45;;;;;;;8.70;4.60;;;;;;;;;;1890528;75;21972;-86
2022/09/09 14:21:17;;;;;;;9.55;4.60;;;;;;;;;;1896554;73;21765;-82
2022/09/09 14:23:48;;;;;;;7.03;4.15;;;;;;;;;;1884411;75;21150;-83
2022/09/09 14:26:23;;;;;;;5.75;4.08;;;;;;;;;;1870246;75;21060;-86
2022/09/09 14:28:53;;;;;;;11.20;4.30;;;;;;;;;;1884895;75;21153;-85
2022/09/09 14:31:27;;;;;;;10.35;4.03;;;;;;;;;;1879677;75;21189;-85
2022/09/09 14:34:07;;;;;;;;;;;;;;;;;;;;;
2022/09/09 14:36:42;;;;;;;9.05;4.15;;;;;;;;;;1895548;75;21107;-86
2022/09/09 14:39:14;;;;;;;8.30;4.42;;;;;;;;;;1893863;75;21094;-84
2022/09/09 14:41:46;;;;;;;5.55;3.62;;;;;;;;;;1873782;75;21155;-85
2022/09/09 14:44:17;;;;;;;6.15;3.98;;;;;;;;;;1878497;75;21162;-85
2022/09/09 14:46:50;;;;;;;8.13;3.58;;;;;;;;;;1864966;76;21536;-84
2022/09/09 14:49:20;;;;;;;8.48;3.90;;;;;;;;;;1873208;75;21185;-82
2022/09/09 14:51:51;;;;;;;6.15;3.98;;;;;;;;;;1876231;75;21115;-84
2022/09/09 14:54:23;;;;;;;7.28;3.85;;;;;;;;;;1871303;75;21102;-85
2022/09/09 14:56:53;;;;;;;7.55;4.40;;;;;;;;;;1896606;73;21600;-86
2022/09/09 14:59:24;;;;;;;5.92;3.62;;;;;;;;;;1901716;74;21190;-86
2022/09/09 15:01:54;;;;;;;5.12;3.55;;;;;;;;;;1901107;73;21669;-84
2022/09/09 15:04:24;;;;;;;6.87;3.62;;;;;;;;;;1907382;75;21140;-85
2022/09/09 15:06:58;;;;;;;8.33;3.50;;;;;;;;;;1902245;75;21621;-86
2022/09/09 15:09:37;;;;;;;5.25;3.72;;;;;;;;;;1911590;74;21060;-85
2022/09/09 15:12:04;;;;;;;7.70;3.62;;;;;;;;;;1903682;75;21055;-84
2022/09/09 15:14:35;;;;;;;9.73;3.45;;;;;;;;;;1901356;75;21103;-84